Lake Bridgeport, Texas
Current Conditions -  °F | °C
As of 2:35 AM on Saturday 22 Nov 2014 (Local Time) from KXBP Reporting Station
Thunderstorm Thunderstorm  
Wind Chill: 18°   Ceiling: 1300
Heat Index: 18°   Visibility: 10mi
Dew Point: 18°   Wind: 9mph
Humidity: 100%   Direction: 140°SE
Pressure: 30.05"   Gusts: NA
Location:  33.1691°N, 97.8246°W
Report Text: KXBP 220835Z AUTO 14008KT 110V180 10SM -TSRA BKN013 BKN018 OVC024 18/18 A3005 RMK AO2 LTG DSNT ALQS P0027 T01770177
Loading
Personal Weather Stations






























Interactive Weather Map New forecast layout! Learn more

10-Day Weather Forecast

Advertisements
Track Severe Weather on mobile